Acequia, ID

12:36 PM MDT on September 17, 2014 (GMT -0600)
Joslin Field-Magic Valley Regional | Change Station
CLOSE
Current Station
Airport
Location: Twin Falls,
Elevation: 4150 ft
Nearby Weather Stations

Elev 4150 ft 42.48 °N, 114.49 °W | Updated 1 hour ago

Partly Cloudy
Partly Cloudy
75 °F
Feels Like 75 °F
N
6
Wind Variable Wind from NE

Today
High -- | Low -- °F
--% Chance of Precip.
Yesterday
High -- | Low -- °F
Precip. -- in
7:17 AM 7:41 PM
Waning Crescent, 34% visible
Pressure 29.77 in
Visibility 10.0 miles
Clouds Clear
Dew Point 52 °F
Humidity 44%
Rainfall 0.00 in
Snow Depth 0 in , 0 in , 0 in
UV 5 out of 12
Pollen 6.90 out of 12
Air Quality Not available.
Flu Activity Not available.
METAR KTWF 171653Z 05005KT 10SM CLR 24/11 A2994 RMK AO2 SLP081 T02390111

More Conditions Fewer Conditions

Pressure 29.77 in
Visibility 10.0 miles
Clouds Clear
Dew Point 52 °F
Humidity 44%
Rainfall 0.00 in
Snow Depth 0 in , 0 in , 0 in
UV 5 out of 12
Pollen 6.90 out of 12
Air Quality Not available.
Flu Activity Not available.
METAR KTWF 171653Z 05005KT 10SM CLR 24/11 A2994 RMK AO2 SLP081 T02390111

More Conditions Fewer Conditions

10-Day Weather Forecast

Almanac

Astronomy

Sep. 17, 2014 Rise Set
Actual Time 7:17 AM MDT 7:41 PM MDT
Civil Twilight 6:48 AM MDT 8:09 PM MDT
Nautical Twilight 6:15 AM MDT 8:42 PM MDT
Astronomical Twilight 5:41 AM MDT 9:16 PM MDT
Moon 1:14 AM MDT 3:59 PM MDT
Length of Visible Light 13h 20m
Length of Day
12h 24m
Tomorrow will be 2m 51s shorter.
Waning Crescent, 34% of the Moon is Illuminated
Today
Waning Crescent
Sep 24
New
Oct 1
First Quarter
Oct 8
Full
Oct 15
Last Quarter

Today's Extremes

State Highs State Lows

Community

WunderPhotos

Upload Photos

1,754,127 photos uploaded!

WunderBlogs® & News

Nearby

Snow Depth

Station Depth Elevation
Hyndman 0 in 7440 ft
Dollarhide Summit 0 in 8420 ft
Wilson Creek 0 in 7120 ft
Mud Flat 0 in 5730 ft
Swede Peak 0 in 7640 ft

Earthquake Activity

City Distance Mag. Time & Date
No recent earthquake activity has been reported nearby.
Minimum magnitude displayed is 2.5.

Coastal Water Temperatures

Place Temperature
No Stations Reporting

Nearby Weather Stations